Time,TemperatureF,DewpointF,PressureIn,WindDirection,WindDirectionDegrees,WindSpeedMPH,WindSpeedGustMPH,Humidity,HourlyPrecipIn,Conditions,Clouds,dailyrainin,SoftwareType,DateUTC
2013-08-22 00:14:00,68.9,65.8,30.00,SW,225,0.0,-999.0,90,-99.99,,,0.00,Acu-Link.com,2013-08-22 04:14:00,
2013-08-22 00:29:00,68.7,66.0,29.99,SW,225,0.0,-999.0,91,-99.99,,,0.00,Acu-Link.com,2013-08-22 04:29:00,
2013-08-22 00:44:00,68.5,65.8,29.99,South,180,0.0,-999.0,91,-99.99,,,0.00,Acu-Link.com,2013-08-22 04:44:00,
2013-08-22 00:59:00,68.4,65.9,29.99,SSW,202,0.0,-999.0,92,-99.99,,,0.00,Acu-Link.com,2013-08-22 04:59:00,
2013-08-22 01:14:00,68.2,65.8,29.99,SW,225,0.0,-999.0,92,-99.99,,,0.00,Acu-Link.com,2013-08-22 05:14:00,
2013-08-22 01:30:00,68.0,65.9,29.98,WSW,247,2.2,-999.0,93,-99.99,,,0.00,Acu-Link.com,2013-08-22 05:30:00,
2013-08-22 01:45:00,68.0,65.9,29.97,South,180,1.6,-999.0,93,-99.99,,,0.00,Acu-Link.com,2013-08-22 05:45:00,
2013-08-22 02:00:00,68.2,66.1,29.97,WSW,247,0.0,-999.0,93,-99.99,,,0.00,Acu-Link.com,2013-08-22 06:00:00,
2013-08-22 02:15:00,68.2,66.1,29.96,SW,225,2.2,-999.0,93,-99.99,,,0.00,Acu-Link.com,2013-08-22 06:15:00,
2013-08-22 02:30:00,68.4,65.9,29.97,South,180,1.6,-999.0,92,-99.99,,,0.00,Acu-Link.com,2013-08-22 06:30:00,
2013-08-22 02:46:00,68.4,65.9,29.96,SW,225,2.2,-999.0,92,-99.99,,,0.00,Acu-Link.com,2013-08-22 06:46:00,
2013-08-22 03:01:00,68.2,65.4,29.96,SW,225,1.1,-999.0,91,-99.99,,,0.00,Acu-Link.com,2013-08-22 07:01:00,
2013-08-22 03:16:00,68.2,65.4,29.95,SW,225,1.1,-999.0,91,-99.99,,,0.00,Acu-Link.com,2013-08-22 07:16:00,
2013-08-22 03:31:00,68.2,65.4,29.95,SW,225,1.6,-999.0,91,-99.99,,,0.00,Acu-Link.com,2013-08-22 07:31:00,
2013-08-22 03:46:00,68.0,65.3,29.94,South,180,0.0,-999.0,91,-99.99,,,0.00,Acu-Link.com,2013-08-22 07:46:00,
2013-08-22 04:02:00,67.8,65.1,29.94,SW,225,1.1,-999.0,91,-99.99,,,0.00,Acu-Link.com,2013-08-22 08:02:00,
2013-08-22 04:17:00,68.0,65.3,29.93,SSW,202,1.1,-999.0,91,-99.99,,,0.00,Acu-Link.com,2013-08-22 08:17:00,
2013-08-22 04:32:00,68.2,65.1,29.93,SW,225,0.0,-999.0,90,-99.99,,,0.00,Acu-Link.com,2013-08-22 08:32:00,
2013-08-22 04:47:00,68.2,64.8,29.93,SW,225,0.0,-999.0,89,-99.99,,,0.00,Acu-Link.com,2013-08-22 08:47:00,
2013-08-22 05:03:00,68.2,64.8,29.92,SW,225,1.1,-999.0,89,-99.99,,,0.00,Acu-Link.com,2013-08-22 09:03:00,
2013-08-22 05:18:00,67.8,67.2,29.92,West,270,0.0,-999.0,98,-99.99,,,0.00,Acu-Link.com,2013-08-22 09:18:00,
2013-08-22 05:33:00,66.6,66.0,29.91,WSW,247,0.0,-999.0,98,-99.99,,,0.01,Acu-Link.com,2013-08-22 09:33:00,
2013-08-22 05:48:00,66.0,65.4,29.91,South,180,0.0,-999.0,98,-99.99,,,0.01,Acu-Link.com,2013-08-22 09:48:00,
2013-08-22 06:03:00,66.0,65.4,29.91,SSW,202,0.0,-999.0,98,-99.99,,,0.02,Acu-Link.com,2013-08-22 10:03:00,
2013-08-22 06:18:00,65.8,65.3,29.92,North,0,0.0,-999.0,98,-99.99,,,0.02,Acu-Link.com,2013-08-22 10:18:00,
2013-08-22 06:34:00,65.8,65.3,29.93,ESE,112,0.0,-999.0,98,-99.99,,,0.02,Acu-Link.com,2013-08-22 10:34:00,
2013-08-22 06:49:00,66.0,65.4,29.93,North,0,0.0,-999.0,98,-99.99,,,0.02,Acu-Link.com,2013-08-22 10:49:00,
2013-08-22 08:36:00,66.2,65.6,29.95,SSW,202,0.0,-999.0,98,-99.99,,,0.48,Acu-Link.com,2013-08-22 12:36:00,
2013-08-22 08:51:00,66.0,65.4,29.91,East,90,0.0,-999.0,98,-99.99,,,0.50,Acu-Link.com,2013-08-22 12:51:00,
2013-08-22 09:06:00,66.0,65.4,29.93,West,270,0.0,-999.0,98,-99.99,,,0.57,Acu-Link.com,2013-08-22 13:06:00,
2013-08-22 09:21:00,66.7,66.2,29.93,WSW,247,0.0,-999.0,98,-99.99,,,0.59,Acu-Link.com,2013-08-22 13:21:00,
2013-08-22 09:37:00,66.7,66.2,29.94,SSW,202,0.0,-999.0,98,-99.99,,,0.60,Acu-Link.com,2013-08-22 13:37:00,
2013-08-22 09:52:00,66.6,66.0,29.96,SW,225,0.0,-999.0,98,-99.99,,,0.60,Acu-Link.com,2013-08-22 13:52:00,
2013-08-22 10:07:00,66.6,66.0,29.95,WSW,247,0.0,-999.0,98,-99.99,,,0.61,Acu-Link.com,2013-08-22 14:07:00,
2013-08-22 10:22:00,66.6,66.0,29.95,South,180,0.0,-999.0,98,-99.99,,,0.61,Acu-Link.com,2013-08-22 14:22:00,
2013-08-22 10:37:00,66.7,66.2,29.95,South,180,0.0,-999.0,98,-99.99,,,0.61,Acu-Link.com,2013-08-22 14:37:00,
2013-08-22 10:52:00,66.9,66.3,29.95,SSW,202,0.0,-999.0,98,-99.99,,,0.61,Acu-Link.com,2013-08-22 14:52:00,
2013-08-22 11:08:00,66.9,66.3,29.95,WSW,247,0.0,-999.0,98,-99.99,,,0.61,Acu-Link.com,2013-08-22 15:08:00,
2013-08-22 11:23:00,67.5,66.9,29.94,WNW,292,0.0,-999.0,98,-99.99,,,0.61,Acu-Link.com,2013-08-22 15:23:00,
2013-08-22 11:38:00,67.6,67.1,29.93,South,180,0.0,-999.0,98,-99.99,,,0.61,Acu-Link.com,2013-08-22 15:38:00,
2013-08-22 11:53:00,68.0,67.4,29.94,SW,225,0.0,-999.0,98,-99.99,,,0.61,Acu-Link.com,2013-08-22 15:53:00,
2013-08-22 12:08:00,68.5,68.0,29.93,SW,225,0.0,-999.0,98,-99.99,,,0.61,Acu-Link.com,2013-08-22 16:08:00,
2013-08-22 12:24:00,68.4,67.8,29.94,NNW,337,0.0,-999.0,98,-99.99,,,0.61,Acu-Link.com,2013-08-22 16:24:00,
2013-08-22 12:39:00,68.2,67.6,29.93,SW,225,0.0,-999.0,98,-99.99,,,0.61,Acu-Link.com,2013-08-22 16:39:00,
2013-08-22 12:54:00,68.4,67.8,29.94,SSE,157,0.0,-999.0,98,-99.99,,,0.61,Acu-Link.com,2013-08-22 16:54:00,
2013-08-22 13:09:00,68.2,67.6,29.93,SW,225,0.0,-999.0,98,-99.99,,,0.61,Acu-Link.com,2013-08-22 17:09:00,
2013-08-22 13:25:00,67.8,67.2,29.92,SSW,202,0.0,-999.0,98,-99.99,,,0.61,Acu-Link.com,2013-08-22 17:25:00,
2013-08-22 13:40:00,67.6,67.1,29.92,North,0,0.0,-999.0,98,-99.99,,,0.61,Acu-Link.com,2013-08-22 17:40:00,
2013-08-22 13:55:00,67.8,67.2,29.92,South,180,0.0,-999.0,98,-99.99,,,0.66,Acu-Link.com,2013-08-22 17:55:00,
2013-08-22 14:10:00,67.5,66.9,29.91,SW,225,0.0,-999.0,98,-99.99,,,0.69,Acu-Link.com,2013-08-22 18:10:00,
2013-08-22 14:25:00,67.6,67.1,29.91,SSE,157,0.0,-999.0,98,-99.99,,,0.69,Acu-Link.com,2013-08-22 18:25:00,
2013-08-22 14:41:00,67.5,66.9,29.90,SSE,157,0.0,-999.0,98,-99.99,,,0.70,Acu-Link.com,2013-08-22 18:41:00,
2013-08-22 14:56:00,67.5,66.9,29.90,SSE,157,0.0,-999.0,98,-99.99,,,0.71,Acu-Link.com,2013-08-22 18:56:00,
2013-08-22 15:11:00,67.6,67.1,29.90,SW,225,0.0,-999.0,98,-99.99,,,0.72,Acu-Link.com,2013-08-22 19:11:00,
2013-08-22 15:26:00,67.8,67.2,29.90,SW,225,0.0,-999.0,98,-99.99,,,0.73,Acu-Link.com,2013-08-22 19:26:00,
2013-08-22 15:41:00,68.5,68.0,29.89,West,270,0.0,-999.0,98,-99.99,,,0.74,Acu-Link.com,2013-08-22 19:41:00,
2013-08-22 15:57:00,68.5,68.0,29.89,WSW,247,0.0,-999.0,98,-99.99,,,0.74,Acu-Link.com,2013-08-22 19:57:00,
2013-08-22 16:12:00,68.9,68.3,29.88,West,270,0.0,-999.0,98,-99.99,,,0.74,Acu-Link.com,2013-08-22 20:12:00,
2013-08-22 16:27:00,68.7,68.1,29.88,WSW,247,0.0,-999.0,98,-99.99,,,0.74,Acu-Link.com,2013-08-22 20:27:00,
2013-08-22 16:42:00,68.4,67.8,29.88,WSW,247,0.0,-999.0,98,-99.99,,,0.74,Acu-Link.com,2013-08-22 20:42:00,
2013-08-22 16:57:00,68.2,67.6,29.87,WNW,292,0.0,-999.0,98,-99.99,,,0.74,Acu-Link.com,2013-08-22 20:57:00,
2013-08-22 17:13:00,68.0,67.4,29.86,WSW,247,0.0,-999.0,98,-99.99,,,0.74,Acu-Link.com,2013-08-22 21:13:00,
2013-08-22 17:28:00,68.2,67.6,29.87,WSW,247,0.0,-999.0,98,-99.99,,,0.74,Acu-Link.com,2013-08-22 21:28:00,
2013-08-22 17:43:00,68.2,67.6,29.87,SW,225,0.0,-999.0,98,-99.99,,,0.74,Acu-Link.com,2013-08-22 21:43:00,
2013-08-22 17:58:00,68.0,67.4,29.88,WSW,247,0.0,-999.0,98,-99.99,,,0.74,Acu-Link.com,2013-08-22 21:58:00,
2013-08-22 18:13:00,67.8,67.2,29.88,NNW,337,0.0,-999.0,98,-99.99,,,0.74,Acu-Link.com,2013-08-22 22:13:00,
2013-08-22 18:29:00,67.8,67.2,29.88,NNW,337,0.0,-999.0,98,-99.99,,,0.74,Acu-Link.com,2013-08-22 22:29:00,
2013-08-22 18:44:00,67.5,66.9,29.88,South,180,0.0,-999.0,98,-99.99,,,0.74,Acu-Link.com,2013-08-22 22:44:00,
2013-08-22 18:59:00,66.2,65.6,29.89,South,180,0.0,-999.0,98,-99.99,,,0.74,Acu-Link.com,2013-08-22 22:59:00,
2013-08-22 19:14:00,65.3,64.7,29.89,South,180,0.0,-999.0,98,-99.99,,,0.74,Acu-Link.com,2013-08-22 23:14:00,
2013-08-22 19:29:00,64.8,64.2,29.88,WSW,247,0.0,-999.0,98,-99.99,,,0.74,Acu-Link.com,2013-08-22 23:29:00,
2013-08-22 19:45:00,64.4,63.8,29.90,SE,135,3.8,-999.0,98,-99.99,,,0.76,Acu-Link.com,2013-08-22 23:45:00,
2013-08-22 20:00:00,63.3,62.7,29.91,South,180,0.0,-999.0,98,-99.99,,,0.78,Acu-Link.com,2013-08-23 00:00:00,
2013-08-22 20:15:00,63.1,62.6,29.90,SSW,202,0.0,-999.0,98,-99.99,,,0.79,Acu-Link.com,2013-08-23 00:15:00,
2013-08-22 20:30:00,63.0,62.4,29.89,SSE,157,0.0,-999.0,98,-99.99,,,0.81,Acu-Link.com,2013-08-23 00:30:00,
2013-08-22 20:45:00,63.0,62.4,29.90,ESE,112,0.0,-999.0,98,-99.99,,,0.83,Acu-Link.com,2013-08-23 00:45:00,
2013-08-22 21:01:00,62.8,62.2,29.91,ESE,112,0.0,-999.0,98,-99.99,,,0.83,Acu-Link.com,2013-08-23 01:01:00,
2013-08-22 21:16:00,62.6,62.0,29.92,South,180,0.0,-999.0,98,-99.99,,,0.84,Acu-Link.com,2013-08-23 01:16:00,
2013-08-22 21:31:00,62.4,61.8,29.92,SE,135,0.0,-999.0,98,-99.99,,,0.84,Acu-Link.com,2013-08-23 01:31:00,
2013-08-22 21:46:00,62.1,61.5,29.93,SE,135,0.0,-999.0,98,-99.99,,,0.85,Acu-Link.com,2013-08-23 01:46:00,
2013-08-22 22:01:00,61.7,61.1,29.93,SSW,202,0.0,-999.0,98,-99.99,,,0.85,Acu-Link.com,2013-08-23 02:01:00,
2013-08-22 22:17:00,61.3,60.8,29.93,SSE,157,0.0,-999.0,98,-99.99,,,0.85,Acu-Link.com,2013-08-23 02:17:00,
2013-08-22 22:32:00,60.6,60.1,29.94,SW,225,0.0,-999.0,98,-99.99,,,0.85,Acu-Link.com,2013-08-23 02:32:00,
2013-08-22 22:47:00,60.3,59.7,29.94,North,0,0.0,-999.0,98,-99.99,,,0.85,Acu-Link.com,2013-08-23 02:47:00,
2013-08-22 23:02:00,59.9,59.3,29.94,North,0,0.0,-999.0,98,-99.99,,,0.85,Acu-Link.com,2013-08-23 03:02:00,
2013-08-22 23:17:00,59.5,59.0,29.96,North,0,0.0,-999.0,98,-99.99,,,0.85,Acu-Link.com,2013-08-23 03:17:00,
2013-08-22 23:33:00,59.4,58.8,29.96,ESE,112,0.0,-999.0,98,-99.99,,,0.85,Acu-Link.com,2013-08-23 03:33:00,
2013-08-22 23:48:00,59.4,58.8,29.97,SSE,157,1.1,-999.0,98,-99.99,,,0.85,Acu-Link.com,2013-08-23 03:48:00,